Time;durP1;ratioP1;P1;durP2;ratioP2;P2;SDS_P1;SDS_P2;PMS_P1;PMS_P2;Temp;Humidity;BMP_temperature;BMP_pressure;BME280_temperature;BME280_humidity;BME280_pressure;Samples;Min_cycle;Max_cycle;Signal;HPM_P1;HPM_P2
2021/09/01 00:02:25;;;;;;;20.52;8.60;;;;;;;19.04;78.48;100915.37;1895840;76;21038;-61
2021/09/01 00:04:53;;;;;;;15.45;7.25;;;;;;;18.97;78.55;100915.44;1896017;76;21535;-61
2021/09/01 00:07:22;;;;;;;15.45;7.85;;;;;;;18.94;78.52;100927.66;1895811;76;21018;-61
2021/09/01 00:09:52;;;;;;;15.80;7.40;;;;;;;18.86;78.57;100920.20;1895819;76;21096;-61
2021/09/01 00:12:20;;;;;;;13.83;7.03;;;;;;;18.82;78.68;100914.23;1895888;76;21129;-61
2021/09/01 00:14:49;;;;;;;16.60;8.43;;;;;;;18.81;78.73;100918.34;1895839;76;21074;-61
2021/09/01 00:17:18;;;;;;;14.00;7.92;;;;;;;18.77;79.01;100919.00;1895765;76;21132;-61
2021/09/01 00:19:47;;;;;;;18.67;8.28;;;;;;;18.73;79.01;100917.52;1895786;76;21171;-61
2021/09/01 00:22:15;;;;;;;19.35;11.57;;;;;;;18.69;79.31;100910.21;1895802;76;21019;-61
2021/09/01 00:24:44;;;;;;;19.98;13.25;;;;;;;18.69;79.70;100918.70;1895733;75;21485;-61
2021/09/01 00:27:13;;;;;;;19.48;11.55;;;;;;;18.68;79.78;100915.19;1895760;76;21058;-61
2021/09/01 00:29:42;;;;;;;17.37;10.88;;;;;;;18.66;80.00;100919.75;1895898;76;21058;-61
2021/09/01 00:32:11;;;;;;;20.02;10.75;;;;;;;18.63;80.16;100923.98;1895694;76;21030;-61
2021/09/01 00:34:40;;;;;;;16.52;9.48;;;;;;;18.62;80.11;100918.75;1895818;76;21043;-62
2021/09/01 00:37:08;;;;;;;11.80;7.65;;;;;;;18.60;80.37;100920.68;1895577;76;21136;-61
2021/09/01 00:39:37;;;;;;;16.55;8.53;;;;;;;18.59;80.30;100921.63;1895773;76;21125;-61
2021/09/01 00:42:07;;;;;;;18.57;8.45;;;;;;;18.58;80.29;100919.45;1895842;76;21050;-61
2021/09/01 00:44:36;;;;;;;13.78;7.65;;;;;;;18.60;80.18;100910.02;1895757;76;21067;-61
2021/09/01 00:47:07;;;;;;;18.40;8.68;;;;;;;18.61;80.21;100913.03;1895770;76;21497;-61
2021/09/01 00:49:36;;;;;;;14.05;8.25;;;;;;;18.60;80.48;100910.02;1895673;76;21039;-61
2021/09/01 00:52:06;;;;;;;13.75;6.55;;;;;;;18.56;80.44;100904.04;1895868;76;21140;-61
2021/09/01 00:54:34;;;;;;;14.23;6.90;;;;;;;18.55;80.37;100905.48;1895857;76;21042;-61
2021/09/01 00:57:06;;;;;;;13.75;7.33;;;;;;;18.50;80.24;100903.99;1895803;76;21058;-61
2021/09/01 00:59:39;;;;;;;13.95;6.85;;;;;;;18.48;80.38;100907.25;1895820;76;21050;-61
2021/09/01 01:02:08;;;;;;;17.95;9.38;;;;;;;18.46;80.41;100910.51;1895720;76;21039;-61
2021/09/01 01:04:38;;;;;;;12.18;7.15;;;;;;;18.44;80.62;100903.55;1895784;76;21065;-61
2021/09/01 01:07:09;;;;;;;17.35;8.18;;;;;;;18.43;81.03;100904.05;1895749;75;21905;-61
2021/09/01 01:09:40;;;;;;;14.15;7.53;;;;;;;18.44;80.95;100912.88;1893623;76;21144;-61
2021/09/01 01:12:12;;;;;;;13.10;7.22;;;;;;;18.44;80.80;100906.22;1895848;76;21101;-62
2021/09/01 01:14:46;;;;;;;14.90;7.42;;;;;;;18.41;80.65;100907.30;1895678;76;21481;-61
2021/09/01 01:17:17;;;;;;;13.15;7.05;;;;;;;18.40;80.67;100904.73;1895731;76;21145;-61
2021/09/01 01:19:48;;;;;;;12.93;7.25;;;;;;;18.36;80.64;100896.09;1895788;76;21121;-61
2021/09/01 01:22:27;;;;;;;13.05;7.75;;;;;;;18.34;80.66;100895.35;1895783;76;21046;-61
2021/09/01 01:25:04;;;;;;;15.30;9.00;;;;;;;18.34;81.14;100895.35;1895690;76;21043;-62
2021/09/01 01:27:44;;;;;;;14.40;8.35;;;;;;;18.35;81.36;100897.03;1895765;76;21015;-61
2021/09/01 01:30:19;;;;;;;19.65;8.83;;;;;;;18.37;81.42;100889.81;1895840;76;21112;-61
2021/09/01 01:32:50;;;;;;;19.15;9.00;;;;;;;18.39;81.35;100890.56;1895547;76;21046;-62
2021/09/01 01:35:31;;;;;;;14.60;8.00;;;;;;;18.38;81.26;100886.66;1895714;76;21136;-61
2021/09/01 01:38:01;;;;;;;15.58;8.00;;;;;;;18.36;81.30;100885.43;1894518;75;21050;-61
2021/09/01 01:40:31;;;;;;;15.05;7.75;;;;;;;18.33;81.20;100878.97;1895722;76;21030;-61
2021/09/01 01:43:00;;;;;;;12.90;7.78;;;;;;;18.31;81.24;100879.56;1895748;76;21120;-61
2021/09/01 01:45:40;;;;;;;14.15;7.95;;;;;;;18.30;81.28;100880.53;1895783;76;21468;-62
2021/09/01 01:48:11;;;;;;;13.13;7.37;;;;;;;18.26;81.45;100881.23;1894812;76;21098;-61
2021/09/01 01:50:41;;;;;;;14.90;7.97;;;;;;;18.22;81.36;100881.53;1895848;76;21054;-61
2021/09/01 01:53:10;;;;;;;14.23;8.15;;;;;;;18.19;81.34;100881.77;1895861;76;21116;-61
2021/09/01 01:55:39;;;;;;;17.07;7.75;;;;;;;18.14;81.43;100881.57;1895740;76;21136;-61
2021/09/01 01:58:08;;;;;;;13.13;7.10;;;;;;;18.11;81.38;100875.14;1895631;75;21543;-61
2021/09/01 02:00:37;;;;;;;16.02;8.55;;;;;;;18.10;81.47;100879.23;1895860;76;21553;-62
2021/09/01 02:03:06;;;;;;;14.58;7.83;;;;;;;18.08;81.51;100884.67;1895775;76;21543;-61
2021/09/01 02:05:35;;;;;;;16.17;7.42;;;;;;;18.06;81.60;100887.92;1895955;76;21497;-61
2021/09/01 02:08:04;;;;;;;16.17;7.95;;;;;;;18.04;81.78;100881.84;1895718;76;21042;-61
2021/09/01 02:10:33;;;;;;;19.40;7.87;;;;;;;18.00;81.89;100883.02;1895862;76;21042;-61
2021/09/01 02:13:02;;;;;;;19.00;7.97;;;;;;;17.96;82.04;100886.83;1895665;76;21019;-61
2021/09/01 02:15:31;;;;;;;15.48;8.33;;;;;;;17.91;82.20;100888.97;1895927;76;21046;-61
2021/09/01 02:17:59;;;;;;;16.35;8.93;;;;;;;17.91;82.25;100893.81;1895695;76;21124;-61
2021/09/01 02:20:28;;;;;;;22.37;11.08;;;;;;;17.94;82.09;100892.73;1895952;76;21130;-61
2021/09/01 02:22:57;;;;;;;28.20;14.13;;;;;;;17.97;82.13;100889.88;1895880;76;21121;-61
2021/09/01 02:25:27;;;;;;;23.75;11.12;;;;;;;18.00;82.11;100891.02;1895704;76;21074;-61
2021/09/01 02:27:57;;;;;;;23.22;11.93;;;;;;;18.02;81.91;100892.21;1896019;76;21129;-61
2021/09/01 02:30:26;;;;;;;25.12;10.43;;;;;;;18.04;81.86;100892.50;1895738;76;21136;-61
2021/09/01 02:32:55;;;;;;;20.45;11.00;;;;;;;18.04;81.66;100898.32;1895732;76;21058;-61
2021/09/01 02:35:24;;;;;;;18.55;9.10;;;;;;;18.03;81.70;100900.11;1891167;75;21167;-62
2021/09/01 02:37:52;;;;;;;20.72;10.25;;;;;;;18.01;81.66;100895.36;1889720;76;21023;-62
2021/09/01 02:40:22;;;;;;;27.82;10.28;;;;;;;18.01;81.58;100896.70;1889809;76;21042;-61
2021/09/01 02:42:51;;;;;;;19.85;10.13;;;;;;;18.01;81.82;100906.02;1889789;76;21458;-61
2021/09/01 02:45:19;;;;;;;21.23;10.18;;;;;;;18.01;81.68;100905.17;1889810;76;21043;-61
2021/09/01 02:47:49;;;;;;;18.10;9.83;;;;;;;18.00;81.85;100900.34;1889901;76;21168;-61
2021/09/01 02:50:17;;;;;;;21.33;10.13;;;;;;;18.04;81.80;100903.16;1889782;76;21529;-62
2021/09/01 02:52:46;;;;;;;14.05;9.00;;;;;;;18.01;81.72;100906.02;1889835;76;21216;-61
2021/09/01 02:55:15;;;;;;;17.67;8.95;;;;;;;17.99;81.61;100902.61;1889927;76;21075;-62
2021/09/01 02:57:45;;;;;;;15.95;8.58;;;;;;;17.98;81.55;100905.38;1889877;76;21050;-61
2021/09/01 03:00:15;;;;;;;14.78;8.13;;;;;;;17.96;81.63;100903.30;1889822;76;21047;-61
2021/09/01 03:02:43;;;;;;;16.12;9.15;;;;;;;17.96;81.69;100902.81;1889909;76;21039;-61
2021/09/01 03:05:12;;;;;;;16.15;8.08;;;;;;;18.00;81.62;100908.78;1889817;76;21196;-61
2021/09/01 03:07:41;;;;;;;17.55;8.03;;;;;;;18.01;81.51;100904.69;1889786;76;21505;-61
2021/09/01 03:10:10;;;;;;;13.68;7.35;;;;;;;17.99;81.43;100903.94;1889886;76;21132;-62
2021/09/01 03:12:39;;;;;;;18.27;8.10;;;;;;;17.95;81.54;100902.45;1889983;76;21086;-61
2021/09/01 03:15:08;;;;;;;20.02;8.28;;;;;;;17.91;81.60;100899.14;1890046;76;21054;-61
2021/09/01 03:17:37;;;;;;;11.08;6.92;;;;;;;17.90;81.67;100905.89;1889851;76;21112;-62
2021/09/01 03:20:07;;;;;;;12.63;7.67;;;;;;;17.88;81.80;100906.48;1889949;76;21042;-61
2021/09/01 03:22:35;;;;;;;12.53;7.17;;;;;;;17.90;81.81;100909.89;1889997;76;21031;-61
2021/09/01 03:25:05;;;;;;;15.83;7.40;;;;;;;17.88;81.79;100913.14;1889838;76;21067;-61
2021/09/01 03:27:34;;;;;;;15.15;7.60;;;;;;;17.85;81.84;100904.02;1889902;76;21124;-61
2021/09/01 03:30:03;;;;;;;14.10;7.92;;;;;;;17.84;81.96;100910.28;1889747;76;21023;-62
2021/09/01 03:32:32;;;;;;;12.45;6.60;;;;;;;17.88;82.04;100914.47;1889982;76;21014;-61
2021/09/01 03:35:01;;;;;;;19.20;9.50;;;;;;;17.89;82.02;100916.16;1889853;76;21070;-61
2021/09/01 03:37:30;;;;;;;14.58;8.53;;;;;;;17.94;82.13;100924.70;1889915;76;21074;-60
2021/09/01 03:39:59;;;;;;;17.15;8.58;;;;;;;17.98;82.09;100924.87;1889839;76;21092;-60
2021/09/01 03:42:28;;;;;;;14.83;7.72;;;;;;;18.05;82.00;100930.16;1890001;76;21046;-60
2021/09/01 03:44:56;;;;;;;14.47;8.55;;;;;;;18.11;81.77;100929.77;1889817;76;21077;-61
2021/09/01 03:47:25;;;;;;;15.45;6.87;;;;;;;18.19;81.56;100920.41;1889818;76;21035;-61
2021/09/01 03:49:54;;;;;;;16.35;7.03;;;;;;;18.25;81.36;100920.81;1889838;76;21034;-61
2021/09/01 03:52:23;;;;;;;14.10;8.23;;;;;;;18.34;81.15;100920.67;1889789;76;21035;-61
2021/09/01 03:54:52;;;;;;;14.18;8.63;;;;;;;18.43;80.90;100916.53;1889787;76;21105;-60
2021/09/01 03:57:20;;;;;;;16.02;7.75;;;;;;;18.47;80.67;100920.19;1889652;76;21133;-61
2021/09/01 03:59:49;;;;;;;15.05;8.43;;;;;;;18.55;80.48;100917.48;1889838;76;21090;-61
2021/09/01 04:02:18;;;;;;;17.40;8.35;;;;;;;18.71;80.29;100919.45;1889819;76;21071;-61
2021/09/01 04:04:47;;;;;;;14.13;8.98;;;;;;;18.83;79.73;100918.62;1889802;76;21517;-61
2021/09/01 04:07:16;;;;;;;17.00;8.25;;;;;;;18.90;79.49;100911.02;1889912;76;21126;-61
2021/09/01 04:09:44;;;;;;;12.75;7.25;;;;;;;18.90;79.29;100914.55;1889659;76;21244;-61
2021/09/01 04:12:13;;;;;;;13.38;7.80;;;;;;;18.94;79.16;100916.98;1889754;76;21059;-61
2021/09/01 04:14:42;;;;;;;12.68;7.10;;;;;;;18.89;79.15;100918.17;1889763;76;21023;-61
2021/09/01 04:17:10;;;;;;;10.98;7.10;;;;;;;18.90;79.15;100921.69;1889753;76;21046;-61
2021/09/01 04:19:39;;;;;;;10.72;6.70;;;;;;;18.89;79.12;100914.17;1889740;76;21164;-61
2021/09/01 04:22:08;;;;;;;14.20;8.05;;;;;;;18.92;79.13;100923.76;1889794;76;21136;-62
2021/09/01 04:24:36;;;;;;;17.00;8.23;;;;;;;18.93;79.11;100916.14;1889787;76;21536;-61
2021/09/01 04:27:05;;;;;;;20.10;8.18;;;;;;;19.01;79.20;100915.59;1889818;76;21059;-60
2021/09/01 04:29:34;;;;;;;17.45;7.30;;;;;;;19.09;79.12;100910.56;1889756;76;21513;-60
2021/09/01 04:32:04;;;;;;;15.08;7.92;;;;;;;19.13;78.95;100905.38;1889825;76;21059;-61
2021/09/01 04:34:32;;;;;;;19.05;7.95;;;;;;;19.19;78.78;100908.92;1889879;76;21043;-61
2021/09/01 04:37:01;;;;;;;19.62;7.72;;;;;;;19.18;78.70;100907.69;1889646;76;21168;-61
2021/09/01 04:39:30;;;;;;;18.92;7.15;;;;;;;19.21;78.69;100915.48;1889768;76;21110;-60
2021/09/01 04:41:59;;;;;;;16.85;7.85;;;;;;;19.26;78.62;100908.84;1889843;76;21109;-60
2021/09/01 04:44:27;;;;;;;14.65;6.97;;;;;;;19.31;78.26;100908.98;1889785;76;21062;-60
2021/09/01 04:46:56;;;;;;;20.05;7.70;;;;;;;19.35;78.19;100910.45;1889970;76;21062;-60
2021/09/01 04:49:25;;;;;;;15.00;6.92;;;;;;;19.39;78.09;100909.30;1889664;76;21140;-61
2021/09/01 04:51:54;;;;;;;13.32;7.40;;;;;;;19.45;77.90;100911.01;1889776;76;21528;-61
2021/09/01 04:54:23;;;;;;;14.53;7.62;;;;;;;19.48;77.64;100903.27;1889808;76;21112;-60
2021/09/01 04:56:51;;;;;;;14.10;7.65;;;;;;;19.50;77.48;100905.34;1889803;76;21070;-60
2021/09/01 04:59:20;;;;;;;16.27;7.37;;;;;;;19.57;77.43;100913.27;1889744;76;21050;-60
2021/09/01 05:01:49;;;;;;;15.90;6.85;;;;;;;19.79;77.40;100909.89;1889840;76;21125;-61
2021/09/01 05:04:17;;;;;;;13.20;6.58;;;;;;;19.80;76.85;100908.05;1889895;76;21117;-60
2021/09/01 05:06:46;;;;;;;15.55;6.97;;;;;;;19.78;76.65;100909.99;1889848;76;21054;-60
2021/09/01 05:09:15;;;;;;;11.38;6.42;;;;;;;19.78;76.50;100911.33;1889749;76;21129;-60
2021/09/01 05:11:43;;;;;;;14.95;6.75;;;;;;;19.82;76.51;100908.79;1889738;76;21133;-61
2021/09/01 05:14:12;;;;;;;19.85;7.25;;;;;;;19.91;76.47;100912.10;1889718;76;21556;-61
2021/09/01 05:16:41;;;;;;;15.00;6.58;;;;;;;20.03;76.32;100904.50;1889666;76;21145;-61
2021/09/01 05:19:11;;;;;;;16.52;7.50;;;;;;;20.17;76.23;100902.09;1889710;76;21086;-60
2021/09/01 05:21:42;;;;;;;13.18;6.83;;;;;;;20.35;76.00;100902.50;1889786;76;21074;-60
2021/09/01 05:24:14;;;;;;;13.43;6.75;;;;;;;20.66;75.72;100900.13;1887115;76;21051;-61
2021/09/01 05:26:43;;;;;;;11.73;5.80;;;;;;;20.79;74.76;100896.84;1889886;76;21108;-61
2021/09/01 05:29:13;;;;;;;19.30;6.80;;;;;;;20.99;74.47;100890.39;1889709;76;21118;-61
2021/09/01 05:43:45;;;;;;;12.50;6.30;;;;;;;22.99;67.13;100875.32;1960219;72;27944;-57
2021/09/01 05:46:16;;;;;;;9.78;5.62;;;;;;;23.08;67.55;100873.19;1919521;75;21107;-60
2021/09/01 05:48:46;;;;;;;8.90;6.78;;;;;;;23.23;67.77;100881.19;1919537;75;21101;-60
2021/09/01 05:51:15;;;;;;;11.35;9.70;;;;;;;23.36;67.49;100868.84;1919591;75;21016;-60
2021/09/01 05:53:44;;;;;;;17.65;7.45;;;;;;;23.45;66.83;100867.16;1919755;74;21031;-59
2021/09/01 05:56:15;;;;;;;11.50;7.20;;;;;;;23.40;65.28;100864.03;1919525;75;21094;-59
2021/09/01 05:58:46;;;;;;;15.58;7.67;;;;;;;23.61;64.75;100859.86;1919490;75;21474;-60
2021/09/01 06:01:17;;;;;;;12.40;8.13;;;;;;;23.62;64.74;100858.88;1919627;75;21476;-60
2021/09/01 06:03:48;;;;;;;8.95;7.05;;;;;;;23.59;65.18;100860.50;1919492;75;21027;-60
2021/09/01 06:06:19;;;;;;;13.60;6.97;;;;;;;23.45;65.32;100859.94;1919593;74;21101;-60
2021/09/01 06:08:49;;;;;;;12.82;6.37;;;;;;;23.27;65.32;100863.80;1919576;74;21028;-59
2021/09/01 06:11:21;;;;;;;13.32;5.95;;;;;;;23.12;65.54;100874.59;1919515;74;21114;-59
2021/09/01 06:13:49;;;;;;;15.45;5.42;;;;;;;23.03;65.42;100884.29;1919386;74;21093;-60
2021/09/01 06:16:18;;;;;;;10.85;4.87;;;;;;;23.05;65.54;100881.50;1919506;75;21007;-60
2021/09/01 06:18:47;;;;;;;8.90;4.83;;;;;;;23.20;65.59;100887.33;1919525;74;21035;-60
2021/09/01 06:21:15;;;;;;;8.85;4.45;;;;;;;23.54;65.57;100891.00;1919619;74;21043;-60
2021/09/01 06:23:44;;;;;;;10.32;5.60;;;;;;;24.05;64.71;100891.20;1919471;75;21063;-57
2021/09/01 06:26:13;;;;;;;10.38;5.03;;;;;;;24.49;63.79;100895.55;1919425;75;21035;-57
2021/09/01 06:28:41;;;;;;;16.23;6.10;;;;;;;24.89;63.25;100901.17;1919600;74;21395;-57
2021/09/01 06:31:10;;;;;;;20.20;6.12;;;;;;;25.51;62.54;100899.17;1919614;74;21063;-57
2021/09/01 06:33:39;;;;;;;14.15;4.37;;;;;;;26.20;61.34;100894.91;1919536;75;21124;-57
2021/09/01 06:36:07;;;;;;;10.38;3.47;;;;;;;26.85;59.68;100897.14;1919613;75;21012;-60
2021/09/01 06:38:36;;;;;;;12.37;4.35;;;;;;;27.00;59.09;100901.42;1919584;75;21066;-60
2021/09/01 06:41:05;;;;;;;4.60;2.30;;;;;;;27.18;58.54;100898.61;1919437;73;21134;-60
2021/09/01 06:43:33;;;;;;;5.40;2.67;;;;;;;27.17;57.84;100903.70;1919085;74;21513;-60
2021/09/01 06:46:02;;;;;;;6.22;2.40;;;;;;;27.07;57.80;100902.97;1918869;75;21191;-60
2021/09/01 06:48:31;;;;;;;8.83;2.65;;;;;;;26.94;57.73;100904.27;1918930;75;21028;-59
2021/09/01 06:51:00;;;;;;;6.95;3.12;;;;;;;26.72;57.50;100898.11;1918900;75;21083;-60
2021/09/01 06:53:28;;;;;;;6.30;3.05;;;;;;;26.53;57.60;100902.70;1918768;75;21063;-59
2021/09/01 06:56:00;;;;;;;7.45;3.12;;;;;;;26.38;57.67;100894.86;1918908;75;21093;-60
2021/09/01 06:58:28;;;;;;;7.20;2.98;;;;;;;26.37;57.77;100893.16;1918807;75;21036;-60
2021/09/01 07:00:57;;;;;;;6.65;2.52;;;;;;;26.57;58.26;100893.27;1918935;75;21527;-60
2021/09/01 07:03:25;;;;;;;6.80;3.30;;;;;;;26.68;58.04;100890.83;1918961;75;21035;-59
2021/09/01 07:05:55;;;;;;;8.25;3.55;;;;;;;26.93;58.05;100890.44;1918858;74;21071;-60
2021/09/01 07:08:24;;;;;;;9.08;4.05;;;;;;;27.14;57.75;100885.09;1918810;75;21090;-60
2021/09/01 07:10:53;;;;;;;8.48;4.17;;;;;;;27.47;58.12;100883.84;1919019;75;21465;-60
2021/09/01 07:13:23;;;;;;;14.53;6.92;;;;;;;28.01;57.50;100876.09;1918922;75;21027;-60
2021/09/01 07:15:51;;;;;;;22.40;8.70;;;;;;;28.34;56.60;100882.81;1918930;75;21094;-60
2021/09/01 07:18:20;;;;;;;16.85;5.72;;;;;;;28.62;56.11;100886.48;1918776;73;21063;-60
2021/09/01 07:20:49;;;;;;;12.20;5.70;;;;;;;28.98;55.40;100879.23;1918963;75;21520;-59
2021/09/01 07:23:18;;;;;;;13.25;4.60;;;;;;;29.29;54.27;100868.91;1918783;75;21148;-59
2021/09/01 07:25:47;;;;;;;10.85;5.55;;;;;;;29.88;52.73;100873.23;1918953;75;21023;-59
2021/09/01 07:28:15;;;;;;;11.80;3.40;;;;;;;30.57;51.30;100872.20;1918811;75;21043;-59
2021/09/01 07:30:44;;;;;;;9.30;3.37;;;;;;;31.10;49.88;100867.98;1918919;75;21103;-60
2021/09/01 07:33:13;;;;;;;7.35;3.10;;;;;;;31.17;49.55;100864.30;1918781;75;21106;-60
2021/09/01 07:35:41;;;;;;;9.58;2.65;;;;;;;31.83;47.89;100860.54;1918857;75;21442;-59
2021/09/01 07:38:10;;;;;;;6.97;2.35;;;;;;;32.30;45.67;100861.76;1918927;75;21024;-59
2021/09/01 07:40:40;;;;;;;7.58;2.40;;;;;;;32.70;45.07;100858.42;1918852;75;21023;-60
2021/09/01 07:43:08;;;;;;;5.53;2.08;;;;;;;32.66;43.38;100857.98;1921216;74;21043;-60
2021/09/01 07:45:37;;;;;;;3.87;2.37;;;;;;;32.78;43.17;100850.08;1895152;76;21046;-60
2021/09/01 07:48:06;;;;;;;4.67;2.00;;;;;;;33.07;42.63;100858.97;1891459;76;21023;-59
2021/09/01 07:50:35;;;;;;;4.08;2.17;;;;;;;33.31;41.96;100856.25;1872783;76;21557;-59
2021/09/01 07:53:03;;;;;;;4.55;2.10;;;;;;;33.82;41.98;100857.02;1872644;76;21012;-59
2021/09/01 07:55:32;;;;;;;4.25;1.80;;;;;;;33.79;40.78;100862.93;1872624;76;21091;-59
2021/09/01 07:58:01;;;;;;;6.30;2.40;;;;;;;33.68;40.90;100855.88;1872545;77;21052;-60
2021/09/01 08:00:30;;;;;;;2.80;1.80;;;;;;;34.00;40.15;100856.92;1872807;77;21068;-60
2021/09/01 08:02:58;;;;;;;5.42;2.10;;;;;;;33.74;39.28;100858.62;1872659;77;21048;-59
2021/09/01 08:05:27;;;;;;;7.97;1.90;;;;;;;33.89;39.01;100848.84;1872768;77;21114;-59
2021/09/01 08:07:56;;;;;;;4.03;2.52;;;;;;;33.99;37.92;100848.40;1872676;77;21056;-60
2021/09/01 08:10:24;;;;;;;8.73;2.27;;;;;;;34.06;37.91;100846.50;1872883;77;21102;-60
2021/09/01 08:12:54;;;;;;;5.28;2.12;;;;;;;34.17;37.71;100840.41;1872599;77;21071;-60
2021/09/01 08:15:23;;;;;;;3.87;2.30;;;;;;;34.48;36.41;100840.23;1872751;76;21083;-59
2021/09/01 08:17:52;;;;;;;7.55;2.20;;;;;;;34.57;36.51;100838.94;1872789;77;21542;-60
2021/09/01 08:20:21;;;;;;;6.92;3.00;;;;;;;34.68;36.46;100841.56;1872717;77;21502;-59
2021/09/01 08:22:49;;;;;;;5.17;2.70;;;;;;;34.45;37.07;100842.55;1872771;77;21060;-60
2021/09/01 08:25:18;;;;;;;3.98;2.15;;;;;;;33.59;38.04;100841.05;1872618;77;21505;-60
2021/09/01 08:27:48;;;;;;;3.00;2.37;;;;;;;32.47;39.40;100835.02;1872747;77;21521;-60
2021/09/01 08:30:17;;;;;;;6.50;2.70;;;;;;;31.79;40.58;100821.15;1872770;77;21088;-60
2021/09/01 08:32:45;;;;;;;6.37;2.50;;;;;;;31.54;41.29;100823.47;1872709;77;21173;-59
2021/09/01 08:35:15;;;;;;;5.40;2.65;;;;;;;31.38;41.61;100821.82;1872790;77;21133;-59
2021/09/01 08:37:43;;;;;;;5.72;4.42;;;;;;;31.20;41.76;100821.44;1872635;77;21051;-59
2021/09/01 08:40:13;;;;;;;5.28;2.52;;;;;;;30.90;42.17;100817.42;1872644;77;21071;-59
2021/09/01 08:42:46;;;;;;;8.50;2.20;;;;;;;31.12;42.57;100815.61;1872796;77;21080;-60
2021/09/01 08:45:15;;;;;;;4.50;2.50;;;;;;;31.41;42.52;100813.28;1868083;77;21193;-59
2021/09/01 08:47:45;;;;;;;7.47;2.65;;;;;;;31.53;42.11;100803.56;1919114;74;21511;-60
2021/09/01 08:50:14;;;;;;;6.90;3.15;;;;;;;31.66;41.42;100802.00;1919103;75;21536;-60
2021/09/01 08:52:43;;;;;;;7.40;2.92;;;;;;;32.22;40.15;100803.36;1919090;75;21032;-60
2021/09/01 08:55:13;;;;;;;6.10;2.75;;;;;;;32.06;39.97;100791.42;1919105;75;21059;-59
2021/09/01 08:57:44;;;;;;;3.83;2.40;;;;;;;31.98;39.95;100792.90;1919300;75;21011;-60
2021/09/01 09:00:13;;;;;;;8.08;3.08;;;;;;;31.82;39.62;100784.53;1919094;75;21102;-60
2021/09/01 09:02:45;;;;;;;5.47;2.50;;;;;;;31.44;40.09;100780.22;1919087;74;21008;-60
2021/09/01 09:05:13;;;;;;;8.50;2.58;;;;;;;31.28;40.30;100783.21;1918316;74;21097;-59
2021/09/01 09:07:55;;;;;;;4.67;2.72;;;;;;;31.60;40.61;100782.38;1919122;75;21133;-60
2021/09/01 09:10:28;;;;;;;13.00;4.20;;;;;;;31.55;40.79;100785.16;1919498;74;21031;-59
2021/09/01 09:12:59;;;;;;;8.50;3.60;;;;;;;31.41;41.06;100786.57;1919025;75;21488;-59
2021/09/01 09:15:29;;;;;;;6.95;3.50;;;;;;;31.55;41.36;100781.60;1919079;74;21196;-60
2021/09/01 09:17:58;;;;;;;9.00;4.65;;;;;;;32.32;40.79;100782.02;1919175;75;21039;-59
2021/09/01 09:20:32;;;;;;;11.80;3.47;;;;;;;33.09;40.01;100779.99;1919084;74;21547;-59
2021/09/01 09:23:06;;;;;;;7.75;3.50;;;;;;;33.55;38.49;100770.69;1919154;75;21011;-59
2021/09/01 09:25:35;;;;;;;8.55;3.75;;;;;;;33.76;37.95;100770.50;1918922;75;21160;-59
2021/09/01 09:28:07;;;;;;;7.62;3.72;;;;;;;34.00;37.88;100768.15;1919158;75;21000;-59
2021/09/01 09:30:46;;;;;;;7.47;3.72;;;;;;;34.20;37.34;100764.86;1919069;75;21170;-59
2021/09/01 09:33:18;;;;;;;6.75;3.50;;;;;;;34.77;37.50;100766.95;1919026;75;21576;-59
2021/09/01 09:36:05;;;;;;;9.08;3.50;;;;;;;34.84;36.93;100773.73;1919292;75;21458;-59
2021/09/01 09:38:48;;;;;;;6.72;3.52;;;;;;;34.13;36.66;100773.56;1919037;75;21031;-59
2021/09/01 09:41:27;;;;;;;4.95;3.35;;;;;;;33.99;37.23;100773.28;1919315;75;21011;-59
2021/09/01 09:43:57;;;;;;;8.70;3.65;;;;;;;34.35;37.01;100774.16;1919303;74;21095;-59
2021/09/01 09:46:27;;;;;;;11.15;3.67;;;;;;;34.10;37.55;100778.62;1907399;74;21083;-59
2021/09/01 09:49:09;;;;;;;6.70;3.60;;;;;;;33.99;37.16;100774.65;1906388;74;21470;-59
2021/09/01 09:51:41;;;;;;;5.90;3.33;;;;;;;34.28;36.48;100777.97;1906763;75;21004;-59
2021/09/01 09:54:22;;;;;;;11.03;3.55;;;;;;;34.41;36.42;100772.45;1906347;75;21036;-59
2021/09/01 09:56:52;;;;;;;10.48;3.90;;;;;;;34.83;36.42;100773.44;1906421;75;21098;-59
2021/09/01 09:59:24;;;;;;;8.03;4.00;;;;;;;35.07;35.85;100771.80;1906373;75;21105;-59
2021/09/01 10:01:53;;;;;;;5.00;2.87;;;;;;;35.32;35.73;100771.33;1906671;75;21051;-58
2021/09/01 10:04:22;;;;;;;6.12;3.02;;;;;;;35.27;35.09;100767.05;1906371;75;21678;-59
2021/09/01 10:06:51;;;;;;;5.20;3.20;;;;;;;34.94;34.94;100763.98;1906456;75;21113;-59
2021/09/01 10:09:20;;;;;;;8.93;4.00;;;;;;;34.89;35.29;100766.54;1906428;75;21012;-59
2021/09/01 10:11:50;;;;;;;8.08;4.08;;;;;;;34.97;35.75;100761.33;1906336;74;21028;-59
2021/09/01 10:14:23;;;;;;;5.08;3.08;;;;;;;35.38;35.69;100760.84;1906397;75;21028;-59
2021/09/01 10:16:58;;;;;;;7.47;3.37;;;;;;;35.60;33.82;100759.08;1906336;75;21040;-59
2021/09/01 10:19:30;;;;;;;6.00;3.20;;;;;;;35.63;33.55;100750.39;1906439;75;21082;-60
2021/09/01 10:22:05;;;;;;;6.37;3.15;;;;;;;35.22;32.41;100752.36;1906464;74;21110;-59
2021/09/01 10:24:44;;;;;;;6.25;3.95;;;;;;;35.01;33.08;100753.02;1906584;75;21036;-57
2021/09/01 10:27:25;;;;;;;9.93;3.80;;;;;;;34.95;33.40;100743.80;1906491;75;21427;-59
2021/09/01 10:30:00;;;;;;;5.97;3.50;;;;;;;34.97;33.68;100743.04;1906542;75;21012;-59
2021/09/01 10:32:46;;;;;;;8.30;2.75;;;;;;;34.79;33.67;100737.48;1906283;74;21102;-59
2021/09/01 10:38:58;;;;;;;9.48;3.62;;;;;;;34.27;34.32;100752.55;1906413;75;21094;-60
2021/09/01 10:41:34;;;;;;;7.08;3.75;;;;;;;34.38;34.59;100746.91;1906443;75;21080;-59
2021/09/01 10:44:14;;;;;;;7.17;3.30;;;;;;;34.45;34.38;100747.72;1906482;75;21063;-59
2021/09/01 10:46:59;;;;;;;9.83;3.62;;;;;;;34.41;34.09;100741.02;1906385;74;21149;-59
2021/09/01 10:49:30;;;;;;;9.20;3.77;;;;;;;34.43;34.54;100729.33;1906561;75;21040;-59
2021/09/01 10:52:04;;;;;;;10.75;3.95;;;;;;;34.61;34.84;100725.88;1904544;75;21028;-59
2021/09/01 10:54:35;;;;;;;9.18;4.42;;;;;;;34.52;34.95;100728.02;1906577;74;21036;-58
2021/09/01 10:57:07;;;;;;;8.13;4.42;;;;;;;34.30;35.77;100734.87;1906440;75;21028;-58
2021/09/01 10:59:39;;;;;;;8.68;4.50;;;;;;;33.83;36.63;100726.81;1906350;75;21016;-59
2021/09/01 11:02:10;;;;;;;7.85;4.10;;;;;;;33.46;37.26;100729.98;1906516;75;21094;-58
2021/09/01 11:04:50;;;;;;;7.45;3.80;;;;;;;33.34;37.31;100728.92;1906366;74;21482;-58
2021/09/01 11:07:23;;;;;;;8.58;3.85;;;;;;;33.16;37.32;100722.73;1901507;74;21142;-58
2021/09/01 11:09:55;;;;;;;8.38;3.87;;;;;;;32.96;37.66;100715.89;1906303;74;21056;-59
2021/09/01 11:12:24;;;;;;;12.05;4.20;;;;;;;32.73;37.60;100726.33;1906664;74;21028;-59
2021/09/01 11:14:54;;;;;;;6.15;4.22;;;;;;;32.60;37.65;100717.07;1906455;74;21105;-59
2021/09/01 11:17:31;;;;;;;8.13;3.80;;;;;;;32.56;37.92;100718.50;1906459;75;21040;-59
2021/09/01 11:20:02;;;;;;;10.08;3.55;;;;;;;32.58;38.35;100713.71;1906481;75;21110;-59
2021/09/01 11:22:35;;;;;;;6.87;3.72;;;;;;;32.40;37.72;100701.98;1906456;75;21028;-59
2021/09/01 11:25:11;;;;;;;6.75;3.65;;;;;;;32.21;38.17;100704.13;1906662;74;21016;-59
2021/09/01 11:27:48;;;;;;;9.08;3.85;;;;;;;31.96;38.44;100699.68;1906453;75;21105;-60
2021/09/01 11:30:17;;;;;;;8.25;3.70;;;;;;;31.77;39.40;100696.65;1906452;75;21060;-59
2021/09/01 11:32:46;;;;;;;6.08;3.90;;;;;;;31.79;40.31;100691.84;1906450;75;21512;-60
2021/09/01 11:35:24;;;;;;;11.18;4.15;;;;;;;31.79;40.69;100693.73;1906532;74;21153;-59
2021/09/01 11:38:01;;;;;;;12.60;4.30;;;;;;;31.84;40.52;100688.00;1906653;74;21071;-59
2021/09/01 11:40:35;;;;;;;11.00;4.25;;;;;;;31.99;40.69;100685.14;1906007;74;21036;-59
2021/09/01 11:43:08;;;;;;;12.15;4.58;;;;;;;32.18;40.25;100680.02;1906558;74;21123;-59
2021/09/01 11:45:49;;;;;;;10.88;3.98;;;;;;;32.19;39.73;100681.70;1906458;74;21103;-58
2021/09/01 11:48:18;;;;;;;10.55;4.15;;;;;;;32.04;39.31;100690.00;1906318;74;21553;-57
2021/09/01 11:50:49;;;;;;;12.15;4.60;;;;;;;31.93;39.89;100685.96;1906402;74;21525;-57